createdAt,value
2022-10-07T00:00:43.673Z,0.00
2022-10-07T00:01:43.758Z,0.00
2022-10-07T00:02:43.721Z,0.00
2022-10-07T00:03:43.632Z,0.00
2022-10-07T00:04:43.672Z,0.00
2022-10-07T00:05:43.603Z,0.00
2022-10-07T00:06:43.603Z,0.00
2022-10-07T00:07:43.842Z,0.00
2022-10-07T00:08:43.568Z,0.00
2022-10-07T00:09:43.574Z,0.00
2022-10-07T00:10:43.547Z,0.00
2022-10-07T00:11:43.530Z,0.00
2022-10-07T00:12:43.558Z,0.00
2022-10-07T00:13:43.517Z,0.00
2022-10-07T00:14:43.490Z,0.00
2022-10-07T00:15:43.468Z,0.00
2022-10-07T00:16:43.536Z,0.00
2022-10-07T00:17:43.696Z,0.00
2022-10-07T00:18:43.428Z,0.00
2022-10-07T00:19:43.421Z,0.00
2022-10-07T00:20:43.427Z,0.00
2022-10-07T00:21:43.410Z,0.00
2022-10-07T00:22:43.374Z,0.00
2022-10-07T00:23:43.367Z,0.00
2022-10-07T00:24:43.373Z,0.00
2022-10-07T00:25:43.369Z,0.00
2022-10-07T00:26:43.337Z,0.00
2022-10-07T00:27:43.547Z,0.00
2022-10-07T00:28:43.413Z,0.00
2022-10-07T00:29:44.013Z,0.00
2022-10-07T00:30:43.311Z,0.00
2022-10-07T00:31:43.264Z,0.00
2022-10-07T00:32:43.264Z,0.00
2022-10-07T00:33:43.279Z,0.00
2022-10-07T00:34:43.254Z,0.00
2022-10-07T00:35:43.217Z,0.00
2022-10-07T00:36:43.206Z,0.00
2022-10-07T00:37:43.725Z,0.00
2022-10-07T00:38:43.207Z,0.00
2022-10-07T00:39:43.152Z,0.00
2022-10-07T00:40:43.278Z,0.00
2022-10-07T00:41:43.158Z,0.00
2022-10-07T00:42:43.126Z,0.00
2022-10-07T00:43:43.090Z,0.00
2022-10-07T00:44:43.098Z,0.00
2022-10-07T00:45:43.328Z,0.00
2022-10-07T00:46:43.062Z,0.00
2022-10-07T00:47:43.276Z,0.00
2022-10-07T00:48:43.039Z,0.00
2022-10-07T00:49:43.024Z,0.00
2022-10-07T00:50:43.017Z,0.00
2022-10-07T00:51:43.011Z,0.00
2022-10-07T00:52:42.997Z,0.00
2022-10-07T00:53:42.945Z,0.00
2022-10-07T00:54:42.950Z,0.00
2022-10-07T00:55:42.959Z,0.00
2022-10-07T00:56:42.909Z,0.00
2022-10-07T00:57:43.412Z,0.00
2022-10-07T00:58:42.887Z,0.00
2022-10-07T00:59:42.881Z,0.00
2022-10-07T01:00:42.910Z,0.00
2022-10-07T01:01:42.889Z,0.00
2022-10-07T01:02:42.945Z,0.00
2022-10-07T01:03:42.852Z,0.00
2022-10-07T01:04:42.839Z,0.00
2022-10-07T01:05:42.819Z,0.00
2022-10-07T01:06:42.812Z,0.00
2022-10-07T01:07:43.113Z,0.00
2022-10-07T01:08:42.790Z,0.00
2022-10-07T01:09:42.781Z,0.00
2022-10-07T01:10:42.777Z,0.00
2022-10-07T01:11:42.716Z,0.00
2022-10-07T01:12:42.711Z,0.00
2022-10-07T01:13:42.754Z,0.00
2022-10-07T01:14:42.670Z,0.00
2022-10-07T01:15:42.666Z,0.00
2022-10-07T01:16:42.762Z,0.00
2022-10-07T01:17:42.973Z,0.00
2022-10-07T01:18:42.658Z,0.00
2022-10-07T01:19:42.597Z,0.00
2022-10-07T01:20:42.597Z,0.00
2022-10-07T01:21:42.583Z,0.00
2022-10-07T01:22:42.596Z,0.00
2022-10-07T01:23:42.576Z,0.00
2022-10-07T01:24:42.570Z,0.00
2022-10-07T01:25:42.517Z,0.00
2022-10-07T01:26:42.520Z,0.00
2022-10-07T01:27:42.792Z,0.00
2022-10-07T01:28:42.569Z,0.00
2022-10-07T01:29:42.474Z,0.00
2022-10-07T01:30:42.576Z,0.00
2022-10-07T01:31:42.449Z,0.00
2022-10-07T01:32:42.447Z,0.00
2022-10-07T01:33:42.474Z,0.00
2022-10-07T01:34:42.415Z,0.00
2022-10-07T01:35:42.393Z,0.00
2022-10-07T01:36:42.382Z,0.00
2022-10-07T01:37:42.709Z,0.00
2022-10-07T01:38:42.349Z,0.00
2022-10-07T01:39:42.338Z,0.00
2022-10-07T01:40:42.335Z,0.00
2022-10-07T01:41:42.326Z,0.00
2022-10-07T01:42:42.365Z,0.00
2022-10-07T01:43:42.314Z,0.00
2022-10-07T01:44:42.295Z,0.00
2022-10-07T01:45:42.261Z,0.00
2022-10-07T01:46:42.272Z,0.00
2022-10-07T01:47:42.845Z,0.00
2022-10-07T01:48:42.257Z,0.00
2022-10-07T01:49:42.194Z,0.00
2022-10-07T01:50:42.192Z,0.00
2022-10-07T01:51:42.202Z,0.00
2022-10-07T01:52:42.174Z,0.00
2022-10-07T01:53:42.151Z,0.00
2022-10-07T01:54:42.162Z,0.00
2022-10-07T01:55:42.122Z,0.00
2022-10-07T01:56:42.128Z,0.00
2022-10-07T01:57:42.578Z,0.00
2022-10-07T01:58:42.087Z,0.00
2022-10-07T01:59:42.069Z,0.00
2022-10-07T02:00:42.076Z,0.00
2022-10-07T02:01:42.192Z,0.00
2022-10-07T02:02:42.071Z,0.00
2022-10-07T02:03:42.053Z,0.00
2022-10-07T02:04:42.007Z,0.00
2022-10-07T02:05:42.028Z,0.00
2022-10-07T02:06:41.980Z,0.00
2022-10-07T02:07:42.228Z,0.00
2022-10-07T02:08:41.954Z,0.00
2022-10-07T02:09:41.931Z,0.00
2022-10-07T02:10:41.934Z,0.00
2022-10-07T02:11:41.944Z,0.00
2022-10-07T02:12:41.932Z,0.00
2022-10-07T02:13:41.892Z,0.00
2022-10-07T02:14:41.866Z,0.00
2022-10-07T02:15:41.920Z,0.00
2022-10-07T02:16:41.879Z,0.00
2022-10-07T02:17:42.127Z,0.00
2022-10-07T02:18:41.837Z,0.00
2022-10-07T02:19:41.814Z,0.00
2022-10-07T02:20:41.783Z,0.00
2022-10-07T02:21:41.773Z,0.00
2022-10-07T02:22:41.767Z,0.00
2022-10-07T02:23:41.754Z,0.00
2022-10-07T02:24:41.768Z,0.00
2022-10-07T02:25:41.719Z,0.00
2022-10-07T02:26:41.695Z,0.00
2022-10-07T02:27:42.042Z,0.00
2022-10-07T02:28:41.720Z,0.00
2022-10-07T02:29:41.686Z,0.00
2022-10-07T02:30:41.755Z,0.00
2022-10-07T02:31:41.663Z,0.00
2022-10-07T02:32:41.625Z,0.00
2022-10-07T02:33:41.646Z,0.00
2022-10-07T02:34:41.615Z,0.00
2022-10-07T02:35:41.596Z,0.00
2022-10-07T02:36:41.570Z,0.00
2022-10-07T02:37:41.866Z,0.00
2022-10-07T02:38:41.545Z,0.00
2022-10-07T02:39:41.548Z,0.00
2022-10-07T02:40:41.521Z,0.00
2022-10-07T02:41:41.496Z,0.00
2022-10-07T02:42:41.497Z,0.00
2022-10-07T02:43:41.472Z,0.00
2022-10-07T02:44:41.445Z,0.00
2022-10-07T02:45:41.471Z,0.00
2022-10-07T02:46:41.507Z,0.00
2022-10-07T02:47:41.655Z,0.00
2022-10-07T02:48:41.405Z,0.00
2022-10-07T02:49:41.429Z,0.00
2022-10-07T02:50:41.380Z,0.00
2022-10-07T02:51:41.370Z,0.00
2022-10-07T02:52:41.380Z,0.00
2022-10-07T02:53:41.350Z,0.00
2022-10-07T02:54:41.315Z,0.00
2022-10-07T02:55:41.346Z,0.00
2022-10-07T02:56:41.318Z,0.00
2022-10-07T02:57:41.567Z,0.00
2022-10-07T02:58:41.283Z,0.00
2022-10-07T02:59:41.260Z,0.00
2022-10-07T03:00:41.239Z,0.00
2022-10-07T03:01:41.355Z,0.00
2022-10-07T03:02:41.213Z,0.00
2022-10-07T03:03:41.289Z,0.00
2022-10-07T03:04:41.226Z,0.00
2022-10-07T03:05:41.178Z,0.00
2022-10-07T03:06:41.156Z,0.00
2022-10-07T03:07:41.532Z,0.00
2022-10-07T03:08:41.204Z,0.00
2022-10-07T03:09:41.127Z,0.00
2022-10-07T03:10:41.124Z,0.00
2022-10-07T03:11:41.099Z,0.00
2022-10-07T03:12:41.102Z,0.00
2022-10-07T03:13:41.099Z,0.00
2022-10-07T03:14:41.062Z,0.00
2022-10-07T03:15:42.502Z,0.00
2022-10-07T03:16:41.046Z,0.00
2022-10-07T03:17:41.127Z,0.00
2022-10-07T03:18:41.001Z,0.00
2022-10-07T03:19:41.000Z,0.00
2022-10-07T03:20:40.969Z,0.00
2022-10-07T03:21:41.011Z,0.00
2022-10-07T03:22:40.962Z,0.00
2022-10-07T03:23:40.944Z,0.00
2022-10-07T03:24:40.941Z,0.00
2022-10-07T03:25:40.904Z,0.00
2022-10-07T03:26:40.947Z,0.00
2022-10-07T03:27:40.938Z,0.00
2022-10-07T03:28:40.927Z,0.00
2022-10-07T03:29:40.880Z,0.00
2022-10-07T03:30:40.849Z,0.00
2022-10-07T03:31:40.867Z,0.00
2022-10-07T03:32:40.812Z,0.00
2022-10-07T03:33:40.811Z,0.00
2022-10-07T03:34:40.812Z,0.00
2022-10-07T03:35:40.778Z,0.00
2022-10-07T03:36:40.752Z,0.00
2022-10-07T03:37:40.736Z,0.00
2022-10-07T03:38:40.730Z,0.00
2022-10-07T03:39:40.737Z,0.00
2022-10-07T03:40:40.698Z,0.00
2022-10-07T03:41:40.707Z,0.00
2022-10-07T03:42:40.720Z,0.00
2022-10-07T03:43:40.660Z,0.00
2022-10-07T03:44:40.647Z,0.00
2022-10-07T03:45:40.664Z,0.00
2022-10-07T03:46:40.716Z,0.00
2022-10-07T03:47:40.631Z,0.00
2022-10-07T03:48:40.593Z,0.00
2022-10-07T03:49:40.598Z,0.00
2022-10-07T03:50:40.560Z,0.00
2022-10-07T03:51:40.577Z,0.00
2022-10-07T03:52:40.532Z,0.00
2022-10-07T03:53:40.519Z,0.00
2022-10-07T03:54:40.530Z,0.00
2022-10-07T03:55:40.508Z,0.00
2022-10-07T03:56:40.494Z,0.00
2022-10-07T03:57:40.492Z,0.00
2022-10-07T03:58:40.454Z,0.00
2022-10-07T03:59:40.476Z,0.00
2022-10-07T04:00:40.485Z,0.00
2022-10-07T04:01:40.528Z,0.00
2022-10-07T04:02:40.427Z,0.00
2022-10-07T04:03:40.386Z,0.00
2022-10-07T04:04:40.397Z,0.00
2022-10-07T04:05:40.370Z,0.00
2022-10-07T04:06:40.367Z,0.00
2022-10-07T04:07:40.341Z,0.00
2022-10-07T04:08:40.362Z,0.00
2022-10-07T04:09:40.304Z,0.00
2022-10-07T04:10:40.281Z,0.00
2022-10-07T04:11:40.303Z,0.00
2022-10-07T04:12:40.277Z,0.00
2022-10-07T04:13:40.271Z,0.00
2022-10-07T04:14:40.250Z,0.00
2022-10-07T04:15:40.219Z,0.00
2022-10-07T04:16:40.259Z,0.00
2022-10-07T04:17:40.217Z,0.00
2022-10-07T04:18:40.227Z,0.00
2022-10-07T04:19:40.194Z,0.00
2022-10-07T04:20:40.191Z,0.00
2022-10-07T04:21:40.152Z,0.00
2022-10-07T04:22:40.120Z,0.00
2022-10-07T04:23:40.130Z,0.00
2022-10-07T04:24:40.131Z,0.00
2022-10-07T04:25:40.094Z,0.00
2022-10-07T04:26:40.067Z,0.00
2022-10-07T04:27:51.501Z,0.00
2022-10-07T04:28:40.171Z,0.00
2022-10-07T04:29:40.071Z,0.00
2022-10-07T04:30:40.020Z,0.00
2022-10-07T04:31:40.123Z,0.00
2022-10-07T04:32:40.000Z,0.00
2022-10-07T04:33:39.997Z,0.00
2022-10-07T04:34:39.990Z,0.00
2022-10-07T04:35:39.955Z,0.00
2022-10-07T04:36:39.965Z,0.00
2022-10-07T04:37:39.946Z,0.00
2022-10-07T04:38:39.982Z,0.00
2022-10-07T04:39:59.601Z,0.00
2022-10-07T04:40:39.910Z,0.00
2022-10-07T04:41:39.885Z,0.00
2022-10-07T04:42:39.888Z,0.00
2022-10-07T04:43:39.850Z,0.00
2022-10-07T04:44:39.846Z,0.00
2022-10-07T04:45:39.885Z,0.00
2022-10-07T04:46:39.878Z,0.00
2022-10-07T04:47:39.819Z,0.00
2022-10-07T04:48:39.819Z,0.00
2022-10-07T04:49:39.797Z,0.00
2022-10-07T04:50:39.747Z,0.00
2022-10-07T04:51:39.754Z,0.00
2022-10-07T04:52:39.762Z,0.00
2022-10-07T04:53:39.777Z,0.00
2022-10-07T04:54:39.718Z,0.00
2022-10-07T04:55:39.791Z,0.00
2022-10-07T04:56:39.670Z,0.00
2022-10-07T04:57:39.730Z,0.00
2022-10-07T04:58:39.660Z,0.00
2022-10-07T04:59:42.783Z,0.00
2022-10-07T05:00:39.662Z,0.00
2022-10-07T05:01:39.672Z,0.00
2022-10-07T05:02:39.594Z,0.00
2022-10-07T05:03:39.606Z,0.00
2022-10-07T05:04:39.591Z,0.00
2022-10-07T05:05:39.558Z,0.00
2022-10-07T05:06:39.542Z,0.00
2022-10-07T05:07:39.550Z,0.00
2022-10-07T05:08:39.535Z,0.00
2022-10-07T05:09:39.487Z,0.00
2022-10-07T05:10:39.479Z,0.00
2022-10-07T05:11:39.473Z,0.00
2022-10-07T05:12:39.456Z,0.00
2022-10-07T05:13:39.502Z,0.00
2022-10-07T05:14:39.432Z,0.00
2022-10-07T05:15:39.433Z,0.00
2022-10-07T05:16:39.443Z,0.00
2022-10-07T05:17:39.394Z,0.00
2022-10-07T05:18:39.393Z,0.00
2022-10-07T05:19:39.387Z,0.00
2022-10-07T05:20:39.356Z,0.00
2022-10-07T05:21:39.348Z,0.00
2022-10-07T05:22:39.318Z,0.00
2022-10-07T05:23:39.329Z,0.00
2022-10-07T05:24:39.293Z,0.00
2022-10-07T05:25:39.297Z,0.00
2022-10-07T05:26:39.282Z,0.00
2022-10-07T05:27:39.248Z,0.00
2022-10-07T05:28:39.987Z,0.00
2022-10-07T05:29:39.238Z,4.00
2022-10-07T05:30:39.261Z,4.00
2022-10-07T05:31:39.280Z,0.00
2022-10-07T05:32:39.219Z,0.00
2022-10-07T05:33:39.180Z,0.00
2022-10-07T05:34:39.177Z,0.00
2022-10-07T05:35:39.148Z,4.00
2022-10-07T05:36:39.129Z,4.00
2022-10-07T05:37:39.169Z,4.00
2022-10-07T05:38:39.158Z,0.00
2022-10-07T05:39:39.103Z,0.00
2022-10-07T05:40:39.126Z,4.00
2022-10-07T05:41:45.378Z,4.00
2022-10-07T05:42:39.079Z,4.00
2022-10-07T05:43:39.039Z,4.00
2022-10-07T05:44:39.053Z,0.00
2022-10-07T05:45:39.159Z,4.00
2022-10-07T05:46:39.042Z,4.00
2022-10-07T05:47:39.043Z,4.00
2022-10-07T05:48:39.682Z,4.00
2022-10-07T05:49:38.961Z,4.00
2022-10-07T05:50:38.947Z,8.00
2022-10-07T05:51:38.940Z,4.00
2022-10-07T05:52:38.956Z,4.00
2022-10-07T05:53:38.913Z,8.00
2022-10-07T05:54:38.886Z,8.00
2022-10-07T05:55:40.234Z,8.00
2022-10-07T05:56:38.884Z,8.00
2022-10-07T05:57:38.881Z,8.00
2022-10-07T05:58:38.883Z,8.00
2022-10-07T05:59:38.826Z,8.00
2022-10-07T06:00:38.806Z,8.00
2022-10-07T06:01:38.831Z,8.00
2022-10-07T06:02:38.963Z,8.00
2022-10-07T06:03:38.786Z,12.00
2022-10-07T06:04:38.802Z,12.00
2022-10-07T06:05:38.729Z,12.00
2022-10-07T06:06:38.772Z,12.00
2022-10-07T06:07:38.761Z,12.00
2022-10-07T06:08:38.741Z,12.00
2022-10-07T06:09:38.698Z,8.00
2022-10-07T06:10:38.670Z,12.00
2022-10-07T06:11:38.696Z,12.00
2022-10-07T06:12:38.676Z,16.00
2022-10-07T06:13:38.676Z,12.00
2022-10-07T06:14:38.661Z,12.00
2022-10-07T06:15:38.638Z,12.00
2022-10-07T06:16:38.674Z,16.00
2022-10-07T06:17:38.603Z,16.00
2022-10-07T06:18:38.574Z,12.00
2022-10-07T06:19:38.604Z,16.00
2022-10-07T06:20:38.571Z,16.00
2022-10-07T06:21:38.571Z,16.00
2022-10-07T06:22:38.535Z,20.00
2022-10-07T06:23:38.551Z,16.00
2022-10-07T06:24:38.516Z,20.00
2022-10-07T06:25:38.475Z,16.00
2022-10-07T06:26:38.484Z,20.00
2022-10-07T06:27:38.525Z,20.00
2022-10-07T06:28:38.508Z,20.00
2022-10-07T06:29:38.417Z,16.00
2022-10-07T06:30:38.461Z,20.00
2022-10-07T06:31:38.425Z,20.00
2022-10-07T06:32:38.391Z,20.00
2022-10-07T06:33:38.391Z,20.00
2022-10-07T06:34:38.345Z,20.00
2022-10-07T06:35:38.360Z,24.00
2022-10-07T06:36:38.434Z,20.00
2022-10-07T06:37:38.306Z,24.00
2022-10-07T06:38:38.304Z,24.00
2022-10-07T06:39:38.331Z,28.00
2022-10-07T06:40:38.276Z,28.00
2022-10-07T06:41:38.272Z,24.00
2022-10-07T06:42:38.297Z,24.00
2022-10-07T06:43:38.252Z,24.00
2022-10-07T06:44:38.228Z,28.00
2022-10-07T06:45:38.233Z,24.00
2022-10-07T06:46:38.185Z,28.00
2022-10-07T06:47:38.214Z,28.00
2022-10-07T06:48:38.149Z,28.00
2022-10-07T06:49:38.148Z,28.00
2022-10-07T06:50:38.131Z,28.00
2022-10-07T06:51:38.116Z,28.00
2022-10-07T06:52:43.195Z,24.00
2022-10-07T06:53:38.126Z,28.00
2022-10-07T06:54:38.612Z,32.00
2022-10-07T06:55:38.061Z,28.00
2022-10-07T06:56:38.063Z,32.00
2022-10-07T06:57:45.716Z,28.00
2022-10-07T06:58:38.038Z,28.00
2022-10-07T06:59:38.038Z,28.00
2022-10-07T07:00:38.042Z,28.00
2022-10-07T07:01:38.060Z,32.00
2022-10-07T07:02:38.035Z,32.00
2022-10-07T07:03:37.966Z,28.00
2022-10-07T07:04:37.998Z,32.00
2022-10-07T07:05:41.380Z,32.00
2022-10-07T07:06:37.944Z,36.00
2022-10-07T07:07:37.958Z,32.00
2022-10-07T07:08:37.946Z,36.00
2022-10-07T07:09:37.909Z,32.00
2022-10-07T07:10:37.879Z,36.00
2022-10-07T07:11:37.903Z,36.00
2022-10-07T07:12:37.843Z,36.00
2022-10-07T07:13:39.470Z,40.00
2022-10-07T07:14:37.809Z,44.00
2022-10-07T07:15:37.847Z,44.00
2022-10-07T07:16:37.863Z,48.00
2022-10-07T07:17:37.804Z,52.00
2022-10-07T07:18:37.761Z,52.00
2022-10-07T07:19:37.782Z,56.00
2022-10-07T07:20:37.726Z,60.00
2022-10-07T07:21:37.717Z,60.00
2022-10-07T07:22:37.790Z,56.00
2022-10-07T07:23:37.695Z,64.00
2022-10-07T07:24:37.677Z,64.00
2022-10-07T07:25:37.785Z,64.00
2022-10-07T07:26:37.648Z,72.00
2022-10-07T07:27:37.659Z,72.00
2022-10-07T07:28:37.699Z,72.00
2022-10-07T07:29:37.624Z,72.00
2022-10-07T07:30:37.626Z,76.00
2022-10-07T07:31:37.579Z,80.00
2022-10-07T07:32:37.556Z,80.00
2022-10-07T07:33:37.562Z,92.00
2022-10-07T07:34:37.571Z,96.00
2022-10-07T07:35:37.536Z,96.00
2022-10-07T07:36:37.546Z,96.00
2022-10-07T07:37:37.498Z,104.00
2022-10-07T07:38:37.488Z,108.00
2022-10-07T07:39:37.495Z,112.00
2022-10-07T07:40:37.451Z,120.00
2022-10-07T07:41:37.442Z,116.00
2022-10-07T07:42:37.471Z,112.00
2022-10-07T07:43:37.724Z,108.00
2022-10-07T07:44:37.414Z,104.00
2022-10-07T07:45:37.410Z,104.00
2022-10-07T07:46:37.439Z,104.00
2022-10-07T07:47:37.377Z,100.00
2022-10-07T07:48:37.371Z,100.00
2022-10-07T07:49:37.348Z,92.00
2022-10-07T07:50:37.335Z,92.00
2022-10-07T07:51:37.320Z,92.00
2022-10-07T07:52:37.438Z,92.00
2022-10-07T07:53:37.280Z,88.00
2022-10-07T07:54:37.283Z,88.00
2022-10-07T07:55:38.030Z,88.00
2022-10-07T07:56:37.258Z,96.00
2022-10-07T07:57:37.224Z,100.00
2022-10-07T07:58:37.247Z,104.00
2022-10-07T07:59:37.218Z,104.00
2022-10-07T08:00:37.353Z,104.00
2022-10-07T08:01:37.207Z,104.00
2022-10-07T08:02:37.235Z,104.00
2022-10-07T08:03:37.165Z,108.00
2022-10-07T08:04:37.171Z,104.00
2022-10-07T08:05:37.125Z,112.00
2022-10-07T08:06:37.203Z,116.00
2022-10-07T08:07:37.167Z,124.00
2022-10-07T08:08:37.095Z,132.00
2022-10-07T08:09:37.191Z,144.00
2022-10-07T08:10:37.102Z,172.00
2022-10-07T08:11:37.044Z,208.00
2022-10-07T08:12:37.045Z,216.00
2022-10-07T08:13:37.022Z,224.00
2022-10-07T08:14:37.009Z,244.00
2022-10-07T08:15:37.066Z,248.00
2022-10-07T08:16:36.990Z,252.00
2022-10-07T08:17:37.000Z,252.00
2022-10-07T08:18:37.008Z,240.00
2022-10-07T08:19:36.967Z,252.00
2022-10-07T08:20:36.938Z,264.00
2022-10-07T08:21:36.914Z,248.00
2022-10-07T08:22:36.921Z,272.00
2022-10-07T08:23:36.890Z,300.00
2022-10-07T08:24:36.878Z,344.00
2022-10-07T08:25:36.872Z,360.00
2022-10-07T08:26:36.875Z,464.00
2022-10-07T08:27:37.044Z,416.00
2022-10-07T08:28:36.873Z,400.00
2022-10-07T08:29:36.810Z,548.00
2022-10-07T08:30:36.784Z,312.00
2022-10-07T08:31:36.826Z,308.00
2022-10-07T08:32:36.757Z,380.00
2022-10-07T08:33:36.750Z,612.00
2022-10-07T08:34:36.734Z,576.00
2022-10-07T08:35:36.716Z,388.00
2022-10-07T08:36:36.826Z,424.00
2022-10-07T08:37:36.686Z,720.00
2022-10-07T08:38:36.702Z,664.00
2022-10-07T08:39:36.661Z,752.00
2022-10-07T08:40:36.667Z,720.00
2022-10-07T08:41:36.662Z,676.00
2022-10-07T08:42:36.632Z,608.00
2022-10-07T08:43:36.618Z,632.00
2022-10-07T08:44:36.637Z,760.00
2022-10-07T08:45:36.599Z,828.00
2022-10-07T08:46:36.622Z,700.00
2022-10-07T08:47:36.540Z,784.00
2022-10-07T08:48:36.541Z,720.00
2022-10-07T08:49:36.575Z,704.00
2022-10-07T08:50:36.539Z,552.00
2022-10-07T08:51:36.515Z,860.00
2022-10-07T08:52:36.493Z,804.00
2022-10-07T08:53:36.487Z,812.00
2022-10-07T08:54:36.491Z,860.00
2022-10-07T08:55:36.480Z,884.00
2022-10-07T08:56:36.448Z,792.00
2022-10-07T08:57:36.426Z,864.00
2022-10-07T08:58:36.412Z,892.00
2022-10-07T08:59:36.392Z,908.00
2022-10-07T09:00:36.402Z,904.00
2022-10-07T09:01:36.453Z,864.00
2022-10-07T09:02:36.379Z,764.00
2022-10-07T09:03:36.345Z,884.00
2022-10-07T09:04:36.326Z,992.00
2022-10-07T09:05:36.312Z,996.00
2022-10-07T09:06:36.307Z,1060.00
2022-10-07T09:07:36.323Z,996.00
2022-10-07T09:08:36.280Z,896.00
2022-10-07T09:09:36.249Z,932.00
2022-10-07T09:10:36.286Z,932.00
2022-10-07T09:11:36.230Z,932.00
2022-10-07T09:12:36.261Z,988.00
2022-10-07T09:13:36.211Z,1048.00
2022-10-07T09:14:36.209Z,1056.00
2022-10-07T09:15:36.275Z,1020.00
2022-10-07T09:16:36.222Z,1028.00
2022-10-07T09:17:36.156Z,1032.00
2022-10-07T09:18:36.151Z,980.00
2022-10-07T09:19:36.142Z,1008.00
2022-10-07T09:20:36.110Z,952.00
2022-10-07T09:21:36.162Z,1000.00
2022-10-07T09:22:36.088Z,1028.00
2022-10-07T09:23:36.100Z,1084.00
2022-10-07T09:24:36.142Z,1088.00
2022-10-07T09:25:36.042Z,1080.00
2022-10-07T09:26:36.036Z,1048.00
2022-10-07T09:27:36.065Z,1020.00
2022-10-07T09:28:36.108Z,1008.00
2022-10-07T09:29:36.143Z,996.00
2022-10-07T09:30:35.999Z,1080.00
2022-10-07T09:31:36.070Z,1140.00
2022-10-07T09:32:35.980Z,1212.00
2022-10-07T09:33:35.977Z,1168.00
2022-10-07T09:34:35.974Z,1100.00
2022-10-07T09:35:35.922Z,1112.00
2022-10-07T09:36:35.911Z,1092.00
2022-10-07T09:37:35.914Z,868.00
2022-10-07T09:38:35.884Z,960.00
2022-10-07T09:39:35.899Z,940.00
2022-10-07T09:40:35.878Z,1056.00
2022-10-07T09:41:35.835Z,1052.00
2022-10-07T09:42:35.825Z,1024.00
2022-10-07T09:43:35.808Z,1092.00
2022-10-07T09:44:35.824Z,1068.00
2022-10-07T09:45:35.795Z,1084.00
2022-10-07T09:46:35.872Z,1132.00
2022-10-07T09:47:35.791Z,1132.00
2022-10-07T09:48:35.751Z,1028.00
2022-10-07T09:49:35.748Z,1060.00
2022-10-07T09:50:35.772Z,988.00
2022-10-07T09:51:35.726Z,1144.00
2022-10-07T09:52:35.767Z,1212.00
2022-10-07T09:53:35.669Z,1236.00
2022-10-07T09:54:35.807Z,1348.00
2022-10-07T09:55:35.680Z,1372.00
2022-10-07T09:56:35.671Z,1336.00
2022-10-07T09:57:35.635Z,1512.00
2022-10-07T09:58:35.624Z,1812.00
2022-10-07T09:59:35.619Z,2144.00
2022-10-07T10:00:35.610Z,2596.00
2022-10-07T10:01:35.613Z,2980.00
2022-10-07T10:02:35.747Z,3704.00
2022-10-07T10:03:35.630Z,4764.00
2022-10-07T10:04:35.532Z,6104.00
2022-10-07T10:05:35.544Z,7192.00
2022-10-07T10:06:35.514Z,8140.00
2022-10-07T10:07:35.519Z,9100.00
2022-10-07T10:08:35.475Z,10472.00
2022-10-07T10:09:35.477Z,12200.00
2022-10-07T10:10:35.482Z,14064.00
2022-10-07T10:11:35.459Z,14156.00
2022-10-07T10:12:37.093Z,16512.00
2022-10-07T10:13:35.431Z,13032.00
2022-10-07T10:14:35.444Z,4312.00
2022-10-07T10:15:35.561Z,800.00
2022-10-07T10:16:35.374Z,596.00
2022-10-07T10:17:35.393Z,532.00
2022-10-07T10:18:35.334Z,500.00
2022-10-07T10:19:37.313Z,476.00
2022-10-07T10:20:35.345Z,452.00
2022-10-07T10:21:35.312Z,432.00
2022-10-07T10:22:35.299Z,428.00
2022-10-07T10:23:35.270Z,424.00
2022-10-07T10:24:35.315Z,404.00
2022-10-07T10:25:35.826Z,384.00
2022-10-07T10:26:35.247Z,380.00
2022-10-07T10:27:35.233Z,364.00
2022-10-07T10:28:35.274Z,364.00
2022-10-07T10:29:35.228Z,352.00
2022-10-07T10:30:35.186Z,348.00
2022-10-07T10:31:35.262Z,360.00
2022-10-07T10:32:35.208Z,368.00
2022-10-07T10:33:35.141Z,368.00
2022-10-07T10:34:35.169Z,368.00
2022-10-07T10:35:35.172Z,372.00
2022-10-07T10:36:35.110Z,360.00
2022-10-07T10:37:35.099Z,356.00
2022-10-07T10:38:35.064Z,364.00
2022-10-07T10:39:35.064Z,364.00
2022-10-07T10:40:35.080Z,368.00
2022-10-07T10:41:35.106Z,368.00
2022-10-07T10:42:35.002Z,364.00
2022-10-07T10:43:35.018Z,356.00
2022-10-07T10:44:35.001Z,352.00
2022-10-07T10:45:35.385Z,352.00
2022-10-07T10:46:35.014Z,352.00
2022-10-07T10:47:34.978Z,352.00
2022-10-07T10:48:35.045Z,352.00
2022-10-07T10:49:34.981Z,364.00
2022-10-07T10:50:34.977Z,360.00
2022-10-07T10:51:34.955Z,360.00
2022-10-07T10:52:34.921Z,352.00
2022-10-07T10:53:34.872Z,344.00
2022-10-07T10:54:34.855Z,340.00
2022-10-07T10:55:34.854Z,336.00
2022-10-07T10:56:35.226Z,340.00
2022-10-07T10:57:34.858Z,340.00
2022-10-07T10:58:34.832Z,332.00
2022-10-07T10:59:34.816Z,332.00
2022-10-07T11:00:34.786Z,340.00
2022-10-07T11:01:34.806Z,344.00
2022-10-07T11:02:34.878Z,340.00
2022-10-07T11:03:34.759Z,344.00
2022-10-07T11:04:34.721Z,340.00
2022-10-07T11:05:34.710Z,328.00
2022-10-07T11:06:34.699Z,316.00
2022-10-07T11:07:34.685Z,308.00
2022-10-07T11:08:38.307Z,300.00
2022-10-07T11:09:34.663Z,296.00
2022-10-07T11:10:34.642Z,300.00
2022-10-07T11:11:34.675Z,296.00
2022-10-07T11:12:34.624Z,304.00
2022-10-07T11:13:34.635Z,304.00
2022-10-07T11:14:34.703Z,308.00
2022-10-07T11:15:34.580Z,308.00
2022-10-07T11:16:34.597Z,300.00
2022-10-07T11:17:34.568Z,296.00
2022-10-07T11:18:34.554Z,288.00
2022-10-07T11:19:34.535Z,280.00
2022-10-07T11:20:34.519Z,280.00
2022-10-07T11:21:34.534Z,276.00
2022-10-07T11:22:34.518Z,276.00
2022-10-07T11:23:34.475Z,276.00
2022-10-07T11:24:34.576Z,268.00
2022-10-07T11:25:34.457Z,260.00
2022-10-07T11:26:34.987Z,256.00
2022-10-07T11:27:34.446Z,260.00
2022-10-07T11:28:34.454Z,256.00
2022-10-07T11:29:34.418Z,252.00
2022-10-07T11:30:34.393Z,252.00
2022-10-07T11:31:34.405Z,232.00
2022-10-07T11:32:34.380Z,224.00
2022-10-07T11:33:34.347Z,224.00
2022-10-07T11:34:34.570Z,228.00
2022-10-07T11:35:34.334Z,224.00
2022-10-07T11:36:34.324Z,228.00
2022-10-07T11:37:34.331Z,228.00
2022-10-07T11:38:34.288Z,220.00
2022-10-07T11:39:34.263Z,220.00
2022-10-07T11:40:34.293Z,216.00
2022-10-07T11:41:34.238Z,212.00
2022-10-07T11:42:34.234Z,216.00
2022-10-07T11:43:34.259Z,228.00
2022-10-07T11:44:34.191Z,228.00
2022-10-07T11:45:34.217Z,228.00
2022-10-07T11:46:34.225Z,224.00
2022-10-07T11:47:34.228Z,220.00
2022-10-07T11:48:34.170Z,216.00
2022-10-07T11:49:34.142Z,212.00
2022-10-07T11:50:34.167Z,208.00
2022-10-07T11:51:34.100Z,204.00
2022-10-07T11:52:38.180Z,204.00
2022-10-07T11:53:34.106Z,212.00
2022-10-07T11:54:34.071Z,216.00
2022-10-07T11:55:34.075Z,212.00
2022-10-07T11:56:34.034Z,204.00
2022-10-07T11:57:34.040Z,200.00
2022-10-07T11:58:34.037Z,196.00
2022-10-07T11:59:34.029Z,192.00
2022-10-07T12:00:34.009Z,188.00
2022-10-07T12:01:34.027Z,184.00
2022-10-07T12:02:34.081Z,188.00
2022-10-07T12:03:34.033Z,184.00
2022-10-07T12:04:33.946Z,184.00
2022-10-07T12:05:33.944Z,176.00
2022-10-07T12:06:33.957Z,168.00
2022-10-07T12:07:33.886Z,164.00
2022-10-07T12:08:33.881Z,156.00
2022-10-07T12:09:33.889Z,156.00
2022-10-07T12:10:33.866Z,160.00
2022-10-07T12:11:33.862Z,160.00
2022-10-07T12:12:33.820Z,164.00
2022-10-07T12:13:33.869Z,168.00
2022-10-07T12:14:33.803Z,172.00
2022-10-07T12:15:33.820Z,176.00
2022-10-07T12:16:33.901Z,176.00
2022-10-07T12:17:33.760Z,176.00
2022-10-07T12:18:33.762Z,168.00
2022-10-07T12:19:33.811Z,164.00
2022-10-07T12:20:33.734Z,164.00
2022-10-07T12:21:33.748Z,160.00
2022-10-07T12:22:33.731Z,164.00
2022-10-07T12:23:33.954Z,164.00
2022-10-07T12:24:33.684Z,160.00
2022-10-07T12:25:33.662Z,160.00
2022-10-07T12:26:33.687Z,160.00
2022-10-07T12:27:33.754Z,156.00
2022-10-07T12:28:33.683Z,152.00
2022-10-07T12:29:33.617Z,148.00
2022-10-07T12:30:33.589Z,148.00
2022-10-07T12:31:33.600Z,144.00
2022-10-07T12:32:33.646Z,148.00
2022-10-07T12:33:33.557Z,148.00
2022-10-07T12:34:33.547Z,144.00
2022-10-07T12:35:33.544Z,144.00
2022-10-07T12:36:33.554Z,144.00
2022-10-07T12:37:33.517Z,140.00
2022-10-07T12:38:33.536Z,140.00
2022-10-07T12:39:33.496Z,136.00
2022-10-07T12:40:33.451Z,136.00
2022-10-07T12:41:37.568Z,132.00
2022-10-07T12:42:33.447Z,132.00
2022-10-07T12:43:33.414Z,128.00
2022-10-07T12:44:33.439Z,124.00
2022-10-07T12:45:33.471Z,128.00
2022-10-07T12:46:33.379Z,128.00
2022-10-07T12:47:33.359Z,132.00
2022-10-07T12:48:33.356Z,128.00
2022-10-07T12:49:33.365Z,128.00
2022-10-07T12:50:33.337Z,128.00
2022-10-07T12:51:33.344Z,124.00
2022-10-07T12:52:33.299Z,128.00